This is the latest recevied weather packets stored in our database for station/object IW5CI-13. If no packets are shown the sender has not sent any weather packets the latest 10 day(s).
| Time | Temp. | Humidity | Pressure | Rain* | Wind** | Luminosity | Snow |
|---|---|---|---|---|---|---|---|
| 1777293316 | 21.11° C | 18% | 1017.7 hPa | - | - | - | - |
| 1777292112 | 21.11° C | 18% | 1018 hPa | - | - | - | - |
| 1777290908 | 20.56° C | 18% | 1018.2 hPa | - | - | - | - |
| 1777288499 | 21.11° C | 20% | 1018.6 hPa | - | - | - | - |
| 1777284886 | 20° C | 19% | 1019.1 hPa | - | - | - | - |
| 1777281276 | 18.89° C | 22% | 1019.7 hPa | - | - | - | - |
| 1777280072 | 17.78° C | 22% | 1020.1 hPa | - | - | - | - |
| 1777278869 | 17.22° C | 24% | 1020.2 hPa | - | - | - | - |
| 1777277665 | 15° C | 27% | 1020.3 hPa | - | - | - | - |
| 1777276460 | 14.44° C | 28% | 1020.3 hPa | - | - | - | - |
| 1777275255 | 13.89° C | 29% | 1020.3 hPa | - | - | - | - |
| 1777274051 | 13.33° C | 29% | 1020.5 hPa | - | - | - | - |
| 1777272846 | 12.78° C | 30% | 1020.3 hPa | - | - | - | - |
| 1777271642 | 11.67° C | 31% | 1020.5 hPa | - | - | - | - |
| 1777270437 | 11.11° C | 32% | 1020.4 hPa | - | - | - | - |
| 1777269233 | 11.11° C | 32% | 1020.5 hPa | - | - | - | - |
| 1777268028 | 10.56° C | 33% | 1020.4 hPa | - | - | - | - |
| 1777266824 | 10.56° C | 32% | 1020.2 hPa | - | - | - | - |
| 1777265620 | 10° C | 33% | 1020.1 hPa | - | - | - | - |
| 1777263211 | 10° C | 33% | 1019.7 hPa | - | - | - | - |
| 1777262006 | 10.56° C | 32% | 1019.8 hPa | - | - | - | - |
| 1777260802 | 11.11° C | 32% | 1019.8 hPa | - | - | - | - |
| 1777259598 | 11.67° C | 30% | 1019.6 hPa | - | - | - | - |
| 1777258393 | 10.56° C | 31% | 1019.8 hPa | - | - | - | - |
| 1777255984 | 11.11° C | 32% | 1019.7 hPa | - | - | - | - |
* Rain since midnight (hover to see other rain measurements)
** Current wind speed in m/s (hover to see current wind gust speed)